EHAM/AMS METAR and TAF weather

Enter ICAO airport designator
Station Type Date Time Source
EHAM METAR 2022/05/23 14:25 UTC NOAA

EHAM 231425Z 34008KT 300V040 5000 RADZ FEW034 SCT040 16/14 Q0998 BECMG 7000


Station Type Date Time Source
EHAM Decoded METAR 2022/05/23 14:25 UTC NOAA

Amsterdam Airport Schiphol, Netherlands (EHAM) 52-18N 004-46E -2M
May 23, 2022 - 10:25 AM EDT / 2022.05.23 1425 UTC
Wind: from the NNW (340 degrees) at 9 MPH (8 KT) (direction variable):0
Visibility: 3 mile(s):0
Sky conditions: partly cloudy
Weather: rain, drizzle
Temperature: 60 F (16 C)
Dew Point: 57 F (14 C)
Relative Humidity: 87%
Pressure (altimeter): 29.47 in. Hg (0998 hPa)
ob: EHAM 231425Z 34008KT 300V040 5000 RADZ FEW034 SCT040 16/14 Q0998 BECMG 7000
cycle: 14

Station Type Date Time Source
EHAM TAF 2022/05/23 12:28 UTC NOAA

TAF COR EHAM 231110Z 2312/2418 07005KT CAVOK
BECMG 2314/2317 34010KT 7000 -RA BKN045 PROB40
TEMPO 2316/2320 4500 SHRA SCT020 BKN040 SCT050CB
BECMG 2318/2321 25012KT 9999 NSW SCT005 BKN008 OVC012
TEMPO 2323/2402 7000 -RADZ
BECMG 2400/2403 24015G25KT SCT025 BKN030 PROB30
TEMPO 2404/2412 25018G28KT 7000 -SHRA SCT020CB
BECMG 2413/2416 24010KT

Example: see airport list